createdAt,value
2023-05-21T00:00:51.503Z,98374.38
2023-05-21T00:02:53.286Z,98378.69
2023-05-21T00:04:55.271Z,98373.78
2023-05-21T00:07:04.268Z,98369.34
2023-05-21T00:09:06.648Z,98364.16
2023-05-21T00:11:08.916Z,98366.47
2023-05-21T00:13:10.541Z,98365.19
2023-05-21T00:15:12.331Z,98360.75
2023-05-21T00:17:14.033Z,98373.06
2023-05-21T00:19:16.340Z,98361.44
2023-05-21T00:21:18.121Z,98369.00
2023-05-21T00:23:19.723Z,98361.78
2023-05-21T00:25:33.841Z,98362.16
2023-05-21T00:27:37.963Z,98358.06
2023-05-21T00:29:43.611Z,98361.19
2023-05-21T00:31:46.190Z,98356.78
2023-05-21T00:33:50.907Z,98354.00
2023-05-21T00:35:52.801Z,98347.94
2023-05-21T00:37:54.365Z,98357.47
2023-05-21T00:39:59.200Z,98359.44
2023-05-21T00:42:06.948Z,98350.63
2023-05-21T00:44:09.686Z,98342.59
2023-05-21T00:46:16.590Z,98345.72
2023-05-21T00:48:18.803Z,98341.66
2023-05-21T00:50:26.425Z,98342.78
2023-05-21T00:52:28.800Z,98346.75
2023-05-21T00:54:30.774Z,98355.41
2023-05-21T00:56:32.684Z,98348.56
2023-05-21T00:58:35.794Z,98342.53
2023-05-21T01:00:43.372Z,98349.28
2023-05-21T01:02:46.776Z,98338.47
2023-05-21T01:04:48.824Z,98343.22
2023-05-21T01:06:53.599Z,98346.34
2023-05-21T01:08:56.418Z,98340.31
2023-05-21T01:10:59.455Z,98345.06
2023-05-21T01:13:01.490Z,98342.94
2023-05-21T01:15:04.345Z,98345.72
2023-05-21T01:17:06.646Z,98341.66
2023-05-21T01:19:11.051Z,98340.06
2023-05-21T01:21:17.465Z,98339.56
2023-05-21T01:23:20.176Z,98337.94
2023-05-21T01:25:25.704Z,98337.78
2023-05-21T01:27:27.598Z,98336.16
2023-05-21T01:29:29.216Z,98332.88
2023-05-21T01:31:37.753Z,98335.19
2023-05-21T01:33:48.982Z,98334.72
2023-05-21T01:36:03.051Z,98332.28
2023-05-21T01:38:26.130Z,98334.94
2023-05-21T01:40:47.578Z,98330.84
2023-05-21T01:42:49.301Z,98331.19
2023-05-21T01:44:56.167Z,98328.75
2023-05-21T01:46:59.413Z,98339.06
2023-05-21T01:49:01.806Z,98324.69
2023-05-21T01:51:05.433Z,98335.31
2023-05-21T01:53:07.561Z,98337.28
2023-05-21T01:55:09.977Z,98331.25
2023-05-21T01:57:14.448Z,98328.78
2023-05-21T01:59:17.257Z,98325.56
2023-05-21T02:01:22.905Z,98328.69
2023-05-21T02:03:31.136Z,98329.00
2023-05-21T02:05:33.532Z,98327.72
2023-05-21T02:07:35.444Z,98324.47
2023-05-21T02:09:37.222Z,98327.59
2023-05-21T02:11:39.204Z,98327.13
2023-05-21T02:13:42.663Z,98323.84
2023-05-21T02:15:45.199Z,98326.13
2023-05-21T02:17:51.506Z,98318.97
2023-05-21T02:19:53.180Z,98321.59
2023-05-21T02:21:54.906Z,98326.69
2023-05-21T02:23:57.166Z,98318.66
2023-05-21T02:25:58.771Z,98320.16
2023-05-21T02:28:01.032Z,98321.66
2023-05-21T02:30:04.579Z,98323.13
2023-05-21T02:32:06.499Z,98319.88
2023-05-21T02:34:08.347Z,98318.94
2023-05-21T02:36:13.232Z,98314.88
2023-05-21T02:38:19.518Z,98310.78
2023-05-21T02:40:30.573Z,98321.25
2023-05-21T02:42:34.802Z,98304.41
2023-05-21T02:44:36.407Z,98313.09
2023-05-21T02:46:38.328Z,98310.97
2023-05-21T02:48:40.100Z,98314.44
2023-05-21T02:50:41.844Z,98308.75
2023-05-21T02:52:44.265Z,98307.44
2023-05-21T02:54:47.360Z,98308.09
2023-05-21T02:56:48.942Z,98310.41
2023-05-21T02:58:51.968Z,98313.84
2023-05-21T03:00:53.788Z,98308.13
2023-05-21T03:02:58.336Z,98316.34
2023-05-21T03:05:03.991Z,98318.13
2023-05-21T03:07:06.387Z,98316.84
2023-05-21T03:09:08.546Z,98318.31
2023-05-21T03:11:13.657Z,98307.91
2023-05-21T03:13:15.653Z,98316.06
2023-05-21T03:15:18.130Z,98317.53
2023-05-21T03:17:20.625Z,98319.38
2023-05-21T03:19:27.434Z,98314.47
2023-05-21T03:21:30.132Z,98319.03
2023-05-21T03:23:31.985Z,98324.44
2023-05-21T03:25:34.637Z,98317.59
2023-05-21T03:27:36.875Z,98314.66
2023-05-21T03:29:40.709Z,98309.72
2023-05-21T03:31:44.934Z,98315.94
2023-05-21T03:33:48.388Z,98315.81
2023-05-21T03:35:56.062Z,98322.00
2023-05-21T03:38:01.832Z,98317.09
2023-05-21T03:40:04.527Z,98312.22
2023-05-21T03:42:06.434Z,98317.28
2023-05-21T03:44:15.644Z,98318.75
2023-05-21T03:46:48.279Z,98314.53
2023-05-21T03:49:04.993Z,98307.19
2023-05-21T03:51:11.172Z,98323.34
2023-05-21T03:53:13.794Z,98322.03
2023-05-21T03:55:15.489Z,98319.59
2023-05-21T03:57:19.996Z,98326.28
2023-05-21T03:59:24.908Z,98326.94
2023-05-21T04:01:28.400Z,98328.41
2023-05-21T04:03:33.308Z,98331.50
2023-05-21T04:05:35.778Z,98327.44
2023-05-21T04:07:38.270Z,98341.63
2023-05-21T04:09:40.746Z,98332.00
2023-05-21T04:11:42.493Z,98333.97
2023-05-21T04:13:46.104Z,98333.47
2023-05-21T04:15:47.778Z,98335.75
2023-05-21T04:17:51.501Z,98342.75
2023-05-21T04:19:53.374Z,98343.56
2023-05-21T04:21:55.045Z,98335.59
2023-05-21T04:24:00.282Z,98338.69
2023-05-21T04:26:25.274Z,98339.00
2023-05-21T04:28:28.906Z,98339.34
2023-05-21T04:30:31.171Z,98336.56
2023-05-21T04:32:34.774Z,98340.16
2023-05-21T04:34:36.492Z,98338.53
2023-05-21T04:36:39.495Z,98343.25
2023-05-21T04:38:42.091Z,98339.34
2023-05-21T04:40:43.607Z,98334.59
2023-05-21T04:42:48.445Z,98333.00
2023-05-21T04:44:51.433Z,98340.97
2023-05-21T04:46:54.789Z,98340.97
2023-05-21T04:48:58.059Z,98338.19
2023-05-21T04:51:05.757Z,98341.78
2023-05-21T04:53:07.449Z,98345.88
2023-05-21T04:55:09.196Z,98346.34
2023-05-21T04:57:11.321Z,98345.22
2023-05-21T04:59:13.864Z,98352.38
2023-05-21T05:01:16.210Z,98348.47
2023-05-21T05:03:18.825Z,98348.97
2023-05-21T05:05:23.454Z,98350.59
2023-05-21T05:07:25.104Z,98359.06
2023-05-21T05:09:31.660Z,98355.16
2023-05-21T05:11:36.357Z,98352.06
2023-05-21T05:13:41.817Z,98358.59
2023-05-21T05:15:43.864Z,98349.94
2023-05-21T05:17:48.197Z,98354.00
2023-05-21T05:19:50.067Z,98343.09
2023-05-21T05:21:51.893Z,98341.63
2023-05-21T05:23:54.615Z,98339.81
2023-05-21T05:26:00.500Z,98347.50
2023-05-21T05:28:02.588Z,98341.28
2023-05-21T05:30:04.721Z,98343.06
2023-05-21T05:32:07.760Z,98345.69
2023-05-21T05:34:09.415Z,98347.16
2023-05-21T05:36:11.070Z,98353.31
2023-05-21T05:38:13.565Z,98352.38
2023-05-21T05:40:19.939Z,98353.81
2023-05-21T05:42:21.738Z,98342.22
2023-05-21T05:44:24.317Z,98340.22
2023-05-21T05:46:26.073Z,98341.69
2023-05-21T05:48:27.846Z,98338.88
2023-05-21T05:50:29.566Z,98337.72
2023-05-21T05:52:31.182Z,98336.38
2023-05-21T05:54:33.534Z,98343.03
2023-05-21T05:56:35.137Z,98337.44
2023-05-21T05:58:39.478Z,98333.84
2023-05-21T06:00:51.200Z,98341.78
2023-05-21T06:02:52.843Z,98341.72
2023-05-21T06:04:55.033Z,98336.59
2023-05-21T06:06:57.688Z,98335.72
2023-05-21T06:08:59.255Z,98334.16
2023-05-21T06:11:01.153Z,98336.41
2023-05-21T06:13:05.750Z,98343.06
2023-05-21T06:15:07.843Z,98330.59
2023-05-21T06:17:09.419Z,98335.63
2023-05-21T06:19:14.205Z,98328.72
2023-05-21T06:21:15.795Z,98332.59
2023-05-21T06:23:17.492Z,98330.38
2023-05-21T06:25:21.296Z,98328.34
2023-05-21T06:27:23.025Z,98330.25
2023-05-21T06:29:25.077Z,98328.97
2023-05-21T06:31:29.388Z,98330.50
2023-05-21T06:33:31.900Z,98327.66
2023-05-21T06:35:37.494Z,98324.44
2023-05-21T06:37:39.652Z,98325.63
2023-05-21T06:39:49.331Z,98327.50
2023-05-21T06:41:51.670Z,98326.22
2023-05-21T06:44:19.277Z,98329.72
2023-05-21T06:46:41.821Z,98330.09
2023-05-21T06:48:44.365Z,98328.78
2023-05-21T06:50:45.960Z,98327.53
2023-05-21T06:52:47.868Z,98326.38
2023-05-21T06:54:49.503Z,98329.13
2023-05-21T06:56:51.156Z,98317.47
2023-05-21T06:58:53.153Z,98327.47
2023-05-21T07:00:55.304Z,98322.19
2023-05-21T07:03:00.263Z,98323.34
2023-05-21T07:05:02.336Z,98326.44
2023-05-21T07:07:04.632Z,98322.31
2023-05-21T07:09:10.291Z,98324.59
2023-05-21T07:11:12.287Z,98317.72
2023-05-21T07:13:13.858Z,98328.38
2023-05-21T07:15:15.563Z,98320.16
2023-05-21T07:17:17.312Z,98328.38
2023-05-21T07:19:19.277Z,98324.19
2023-05-21T07:21:21.125Z,98328.69
2023-05-21T07:23:23.799Z,98321.66
2023-05-21T07:25:25.682Z,98319.41
2023-05-21T07:27:27.286Z,98317.88
2023-05-21T07:29:30.121Z,98318.78
2023-05-21T07:31:31.815Z,98323.28
2023-05-21T07:33:33.891Z,98322.19
2023-05-21T07:35:35.935Z,98328.69
2023-05-21T07:37:37.854Z,98316.78
2023-05-21T07:39:40.299Z,98326.44
2023-05-21T07:41:41.932Z,98322.09
2023-05-21T07:43:44.417Z,98328.97
2023-05-21T07:45:46.157Z,98321.00
2023-05-21T07:47:47.721Z,98319.47
2023-05-21T07:49:49.749Z,98322.38
2023-05-21T07:51:51.629Z,98324.44
2023-05-21T07:53:55.385Z,98316.97
2023-05-21T07:56:02.967Z,98321.47
2023-05-21T07:58:07.330Z,98332.00
2023-05-21T08:00:11.077Z,98322.50
2023-05-21T08:02:24.018Z,98333.91
2023-05-21T08:04:27.155Z,98329.63
2023-05-21T08:06:29.189Z,98327.34
2023-05-21T08:08:31.355Z,98326.72
2023-05-21T08:10:33.423Z,98326.88
2023-05-21T08:12:35.474Z,98323.41
2023-05-21T08:14:37.010Z,98331.63
2023-05-21T08:16:39.068Z,98330.97
2023-05-21T08:18:41.243Z,98333.13
2023-05-21T08:20:43.096Z,98325.66
2023-05-21T08:22:45.281Z,98321.38
2023-05-21T08:24:48.275Z,98329.91
2023-05-21T08:26:51.504Z,98326.47
2023-05-21T08:28:55.716Z,98328.56
2023-05-21T08:30:57.505Z,98333.53
2023-05-21T08:32:59.977Z,98338.47
2023-05-21T08:35:03.427Z,98337.00
2023-05-21T08:37:22.312Z,98335.50
2023-05-21T08:39:49.573Z,98331.56
2023-05-21T08:41:56.449Z,98328.03
2023-05-21T08:44:01.749Z,98341.72
2023-05-21T08:46:04.486Z,98330.94
2023-05-21T08:48:11.687Z,98339.09
2023-05-21T08:50:16.464Z,98333.53
2023-05-21T08:52:21.095Z,98325.19
2023-05-21T08:54:22.763Z,98330.84
2023-05-21T08:56:24.724Z,98329.66
2023-05-21T08:58:33.792Z,98323.66
2023-05-21T09:00:36.895Z,98320.94
2023-05-21T09:02:45.985Z,98323.81
2023-05-21T09:04:49.254Z,98327.50
2023-05-21T09:06:52.049Z,98320.75
2023-05-21T09:09:18.324Z,98318.84
2023-05-21T09:11:23.836Z,98324.91
2023-05-21T09:13:33.039Z,98320.19
2023-05-21T09:15:38.221Z,98320.63
2023-05-21T09:17:41.305Z,98325.09
2023-05-21T09:20:20.793Z,98319.53
2023-05-21T09:22:28.187Z,98317.22
2023-05-21T09:24:34.426Z,98329.72
2023-05-21T09:26:38.684Z,98324.22
2023-05-21T09:28:41.730Z,98317.91
2023-05-21T09:31:26.747Z,98326.41
2023-05-21T09:33:24.565Z,98322.50
2023-05-21T09:35:27.042Z,98316.19
2023-05-21T09:37:28.767Z,98319.91
2023-05-21T09:39:30.696Z,98318.00
2023-05-21T09:41:36.917Z,98314.47
2023-05-21T09:43:43.069Z,98324.97
2023-05-21T09:45:53.299Z,98314.22
2023-05-21T09:47:56.434Z,98311.50
2023-05-21T09:49:58.697Z,98319.63
2023-05-21T09:52:00.584Z,98318.47
2023-05-21T09:54:05.160Z,98319.72
2023-05-21T09:56:09.107Z,98316.22
2023-05-21T09:58:28.165Z,98315.06
2023-05-21T10:00:51.511Z,98323.94
2023-05-21T10:03:12.608Z,98311.16
2023-05-21T10:06:02.147Z,98316.06
2023-05-21T10:08:13.340Z,98307.28
2023-05-21T10:10:24.683Z,98317.84
2023-05-21T10:12:27.780Z,98316.28
2023-05-21T10:14:32.220Z,98316.31
2023-05-21T10:16:35.987Z,98315.16
2023-05-21T10:18:40.110Z,98313.97
2023-05-21T10:20:42.927Z,98312.00
2023-05-21T10:22:44.829Z,98312.03
2023-05-21T10:24:47.229Z,98305.63
2023-05-21T10:26:49.153Z,98327.41
2023-05-21T10:28:56.058Z,98306.13
2023-05-21T10:30:59.021Z,98301.31
2023-05-21T10:33:02.836Z,98303.75
2023-05-21T10:35:04.857Z,98311.84
2023-05-21T10:37:09.392Z,98307.06
2023-05-21T10:39:12.881Z,98299.06
2023-05-21T10:41:17.241Z,98303.97
2023-05-21T10:43:46.512Z,98308.41
2023-05-21T10:46:17.133Z,98292.72
2023-05-21T10:48:43.081Z,98300.41
2023-05-21T10:51:10.742Z,98293.53
2023-05-21T10:53:23.356Z,98298.81
2023-05-21T10:55:54.466Z,98291.56
2023-05-21T10:58:15.982Z,98292.00
2023-05-21T11:00:20.726Z,98288.38
2023-05-21T11:02:26.927Z,98283.16
2023-05-21T11:04:29.460Z,98275.94
2023-05-21T11:06:31.360Z,98276.75
2023-05-21T11:08:36.073Z,98288.81
2023-05-21T11:10:44.533Z,98282.00
2023-05-21T11:13:07.780Z,98281.22
2023-05-21T11:15:09.560Z,98281.63
2023-05-21T11:17:37.362Z,98273.56
2023-05-21T11:19:47.910Z,98278.41
2023-05-21T11:21:55.168Z,98278.84
2023-05-21T11:24:04.193Z,98272.81
2023-05-21T11:26:10.023Z,98268.41
2023-05-21T11:28:11.846Z,98267.59
2023-05-21T11:30:18.773Z,98263.59
2023-05-21T11:32:23.157Z,98266.81
2023-05-21T11:34:34.979Z,98266.41
2023-05-21T11:36:42.189Z,98250.31
2023-05-21T11:39:11.759Z,98261.59
2023-05-21T11:41:19.952Z,98251.94
2023-05-21T11:43:22.231Z,98247.91
2023-05-21T11:45:29.199Z,98251.13
2023-05-21T11:47:33.356Z,98257.56
2023-05-21T11:49:38.077Z,98237.84
2023-05-21T11:51:43.413Z,98248.72
2023-05-21T11:53:45.950Z,98251.13
2023-05-21T11:55:50.805Z,98246.69
2023-05-21T11:57:55.734Z,98254.72
2023-05-21T12:00:01.450Z,98255.06
2023-05-21T12:02:06.880Z,98245.81
2023-05-21T12:04:08.594Z,98252.59
2023-05-21T12:06:10.389Z,98244.53
2023-05-21T12:08:27.364Z,98246.53
2023-05-21T12:10:30.502Z,98246.13
2023-05-21T12:12:45.751Z,98257.38
2023-05-21T12:14:55.806Z,98250.09
2023-05-21T12:17:00.367Z,98239.63
2023-05-21T12:19:06.107Z,98242.44
2023-05-21T12:21:09.633Z,98246.84
2023-05-21T12:23:26.810Z,98245.19
2023-05-21T12:25:29.900Z,98246.78
2023-05-21T12:27:32.886Z,98246.78
2023-05-21T12:29:37.921Z,98245.19
2023-05-21T12:31:49.865Z,98242.78
2023-05-21T12:33:53.838Z,98244.41
2023-05-21T12:35:55.641Z,98238.78
2023-05-21T12:37:57.626Z,98250.06
2023-05-21T12:40:01.302Z,98243.25
2023-05-21T12:42:03.233Z,98241.25
2023-05-21T12:44:05.833Z,98234.84
2023-05-21T12:46:08.953Z,98234.03
2023-05-21T12:48:13.965Z,98239.69
2023-05-21T12:50:21.043Z,98239.28
2023-05-21T12:52:23.138Z,98228.44
2023-05-21T12:54:33.397Z,98224.81
2023-05-21T12:56:47.341Z,98248.59
2023-05-21T12:58:50.664Z,98230.50
2023-05-21T13:00:58.472Z,98224.47
2023-05-21T13:03:01.883Z,98224.06
2023-05-21T13:05:11.081Z,98224.91
2023-05-21T13:07:13.238Z,98226.56
2023-05-21T13:09:14.808Z,98221.31
2023-05-21T13:11:16.387Z,98220.16
2023-05-21T13:13:18.219Z,98223.78
2023-05-21T13:15:19.883Z,98220.56
2023-05-21T13:17:23.061Z,98218.53
2023-05-21T13:19:24.759Z,98218.97
2023-05-21T13:21:26.350Z,98209.31
2023-05-21T13:23:27.928Z,98211.72
2023-05-21T13:25:29.684Z,98206.13
2023-05-21T13:27:38.739Z,98214.22
2023-05-21T13:29:40.313Z,98198.09
2023-05-21T13:31:42.420Z,98204.94
2023-05-21T13:33:44.085Z,98205.34
2023-05-21T13:35:51.010Z,98200.09
2023-05-21T13:37:52.614Z,98198.91
2023-05-21T13:39:54.184Z,98204.94
2023-05-21T13:41:59.344Z,98204.97
2023-05-21T13:44:01.008Z,98200.09
2023-05-21T13:46:08.652Z,98203.31
2023-05-21T13:48:10.242Z,98202.94
2023-05-21T13:50:12.765Z,98206.56
2023-05-21T13:52:14.582Z,98203.72
2023-05-21T13:54:16.211Z,98210.59
2023-05-21T13:56:17.893Z,98201.31
2023-05-21T13:58:19.387Z,98207.75
2023-05-21T14:00:20.950Z,98204.97
2023-05-21T14:02:25.024Z,98199.28
2023-05-21T14:04:27.007Z,98213.81
2023-05-21T14:06:28.588Z,98203.75
2023-05-21T14:08:30.060Z,98209.38
2023-05-21T14:10:31.693Z,98205.75
2023-05-21T14:12:33.421Z,98208.19
2023-05-21T14:14:34.989Z,98203.34
2023-05-21T14:16:39.025Z,98209.38
2023-05-21T14:18:40.755Z,98210.94
2023-05-21T14:20:42.304Z,98203.69
2023-05-21T14:22:43.873Z,98199.22
2023-05-21T14:24:47.425Z,98209.31
2023-05-21T14:26:49.009Z,98199.63
2023-05-21T14:28:50.850Z,98202.84
2023-05-21T14:30:52.518Z,98198.41
2023-05-21T14:32:55.460Z,98202.03
2023-05-21T14:35:01.589Z,98195.19
2023-05-21T14:37:03.302Z,98196.38
2023-05-21T14:39:05.269Z,98193.94
2023-05-21T14:41:07.222Z,98191.91
2023-05-21T14:43:08.764Z,98195.56
2023-05-21T14:45:18.672Z,98192.31
2023-05-21T14:47:21.162Z,98195.94
2023-05-21T14:49:25.961Z,98197.53
2023-05-21T14:51:27.612Z,98192.66
2023-05-21T14:53:29.250Z,98193.47
2023-05-21T14:55:36.144Z,98192.63
2023-05-21T14:57:39.077Z,98192.66
2023-05-21T14:59:40.693Z,98200.66
2023-05-21T15:01:44.901Z,98190.22
2023-05-21T15:03:46.687Z,98197.03
2023-05-21T15:05:48.379Z,98204.28
2023-05-21T15:07:50.039Z,98195.44
2023-05-21T15:10:00.228Z,98198.66
2023-05-21T15:12:02.010Z,98201.50
2023-05-21T15:14:03.625Z,98194.63
2023-05-21T15:16:06.261Z,98197.84
2023-05-21T15:18:08.449Z,98195.41
2023-05-21T15:20:10.346Z,98188.97
2023-05-21T15:22:17.715Z,98189.38
2023-05-21T15:24:19.498Z,98193.81
2023-05-21T15:26:21.565Z,98188.53
2023-05-21T15:28:23.366Z,98186.91
2023-05-21T15:30:27.274Z,98194.97
2023-05-21T15:32:28.923Z,98192.13
2023-05-21T15:34:32.483Z,98192.91
2023-05-21T15:36:34.203Z,98188.88
2023-05-21T15:38:36.084Z,98193.69
2023-05-21T15:40:41.202Z,98192.06
2023-05-21T15:42:42.930Z,98198.88
2023-05-21T15:44:44.505Z,98194.00
2023-05-21T15:46:48.037Z,98187.97
2023-05-21T15:48:50.045Z,98183.13
2023-05-21T15:50:51.587Z,98181.09
2023-05-21T15:52:56.205Z,98185.13
2023-05-21T15:54:57.828Z,98185.91
2023-05-21T15:56:59.342Z,98181.03
2023-05-21T15:59:01.441Z,98187.88
2023-05-21T16:01:03.493Z,98172.56
2023-05-21T16:03:05.428Z,98180.59
2023-05-21T16:05:07.666Z,98176.94
2023-05-21T16:07:09.448Z,98179.75
2023-05-21T16:09:11.495Z,98180.53
2023-05-21T16:11:13.844Z,98175.69
2023-05-21T16:13:15.749Z,98176.47
2023-05-21T16:15:17.364Z,98168.41
2023-05-21T16:17:21.941Z,98174.81
2023-05-21T16:19:23.646Z,98174.41
2023-05-21T16:21:27.518Z,98162.75
2023-05-21T16:23:29.367Z,98163.53
2023-05-21T16:25:30.926Z,98168.31
2023-05-21T16:27:32.645Z,98166.69
2023-05-21T16:29:34.316Z,98163.81
2023-05-21T16:31:37.780Z,98165.03
2023-05-21T16:33:39.563Z,98168.22
2023-05-21T16:35:41.476Z,98163.41
2023-05-21T16:37:43.021Z,98165.00
2023-05-21T16:39:49.712Z,98166.13
2023-05-21T16:41:52.518Z,98162.91
2023-05-21T16:43:54.330Z,98156.06
2023-05-21T16:45:55.838Z,98154.84
2023-05-21T16:47:57.498Z,98158.88
2023-05-21T16:49:59.694Z,98154.84
2023-05-21T16:52:01.833Z,98151.56
2023-05-21T16:54:04.780Z,98157.19
2023-05-21T16:56:06.577Z,98148.34
2023-05-21T16:58:09.505Z,98151.94
2023-05-21T17:00:11.764Z,98162.34
2023-05-21T17:02:16.999Z,98156.31
2023-05-21T17:04:25.893Z,98153.09
2023-05-21T17:06:27.398Z,98153.88
2023-05-21T17:08:28.889Z,98156.69
2023-05-21T17:10:34.054Z,98159.06
2023-05-21T17:12:36.011Z,98157.84
2023-05-21T17:14:39.693Z,98159.03
2023-05-21T17:16:42.861Z,98157.81
2023-05-21T17:18:53.929Z,98155.38
2023-05-21T17:21:00.269Z,98148.88
2023-05-21T17:23:01.972Z,98160.53
2023-05-21T17:25:13.034Z,98164.91
2023-05-21T17:27:14.612Z,98160.41
2023-05-21T17:29:16.195Z,98166.84
2023-05-21T17:31:19.875Z,98170.78
2023-05-21T17:33:21.470Z,98170.75
2023-05-21T17:35:23.341Z,98179.56
2023-05-21T17:37:25.382Z,98179.16
2023-05-21T17:39:26.886Z,98179.53
2023-05-21T17:41:33.947Z,98182.72
2023-05-21T17:43:35.792Z,98176.69
2023-05-21T17:45:37.924Z,98181.88
2023-05-21T17:47:39.606Z,98182.66
2023-05-21T17:49:41.299Z,98185.84
2023-05-21T17:51:43.608Z,98193.03
2023-05-21T17:53:45.129Z,98187.00
2023-05-21T17:55:46.700Z,98187.78
2023-05-21T17:57:48.257Z,98191.34
2023-05-21T17:59:51.943Z,98184.09
2023-05-21T18:01:56.187Z,98187.69
2023-05-21T18:03:57.703Z,98184.81
2023-05-21T18:05:59.311Z,98191.16
2023-05-21T18:08:06.192Z,98198.34
2023-05-21T18:10:08.152Z,98191.91
2023-05-21T18:12:09.806Z,98193.47
2023-05-21T18:14:11.425Z,98197.84
2023-05-21T18:16:13.095Z,98196.97
2023-05-21T18:18:21.325Z,98193.34
2023-05-21T18:20:23.267Z,98195.28
2023-05-21T18:22:24.841Z,98197.22
2023-05-21T18:24:26.349Z,98198.38
2023-05-21T18:26:30.097Z,98196.72
2023-05-21T18:28:33.209Z,98207.06
2023-05-21T18:30:35.125Z,98206.22
2023-05-21T18:32:39.891Z,98207.34
2023-05-21T18:34:43.595Z,98205.69
2023-05-21T18:36:45.221Z,98209.56
2023-05-21T18:38:47.154Z,98214.34
2023-05-21T18:40:50.516Z,98215.47
2023-05-21T18:42:52.070Z,98213.81
2023-05-21T18:44:53.545Z,98214.91
2023-05-21T18:46:55.691Z,98206.00
2023-05-21T18:49:01.750Z,98213.56
2023-05-21T18:51:03.451Z,98213.06
2023-05-21T18:53:05.473Z,98215.00
2023-05-21T18:55:10.316Z,98223.75
2023-05-21T18:57:12.012Z,98222.44
2023-05-21T18:59:13.598Z,98228.34
2023-05-21T19:01:18.759Z,98223.41
2023-05-21T19:03:20.521Z,98226.53
2023-05-21T19:05:22.614Z,98227.66
2023-05-21T19:07:24.291Z,98235.53
2023-05-21T19:09:27.041Z,98229.81
2023-05-21T19:11:32.541Z,98230.91
2023-05-21T19:13:34.284Z,98241.63
2023-05-21T19:15:35.965Z,98236.34
2023-05-21T19:17:39.914Z,98234.63
2023-05-21T19:19:43.835Z,98238.91
2023-05-21T19:21:45.707Z,98236.78
2023-05-21T19:23:53.237Z,98234.66
2023-05-21T19:25:55.516Z,98244.47
2023-05-21T19:28:00.863Z,98247.94
2023-05-21T19:30:02.331Z,98244.63
2023-05-21T19:32:06.937Z,98247.28
2023-05-21T19:34:10.726Z,98244.78
2023-05-21T19:36:12.436Z,98251.84
2023-05-21T19:38:18.065Z,98246.53
2023-05-21T19:40:22.537Z,98250.81
2023-05-21T19:42:24.402Z,98249.47
2023-05-21T19:44:26.279Z,98258.13
2023-05-21T19:46:27.930Z,98256.41
2023-05-21T19:48:29.512Z,98258.66
2023-05-21T19:50:31.346Z,98255.34
2023-05-21T19:52:41.137Z,98261.22
2023-05-21T19:54:54.378Z,98255.06
2023-05-21T19:56:56.950Z,98253.38
2023-05-21T19:58:58.563Z,98260.06
2023-05-21T20:01:01.040Z,98256.72
2023-05-21T20:03:11.301Z,98261.78
2023-05-21T20:05:25.160Z,98264.06
2023-05-21T20:07:27.167Z,98259.53
2023-05-21T20:09:28.828Z,98256.22
2023-05-21T20:11:30.966Z,98262.84
2023-05-21T20:13:32.543Z,98269.50
2023-05-21T20:15:34.600Z,98261.03
2023-05-21T20:17:39.338Z,98266.91
2023-05-21T20:19:44.064Z,98270.75
2023-05-21T20:21:45.850Z,98268.22
2023-05-21T20:23:47.627Z,98260.91
2023-05-21T20:25:49.493Z,98263.97
2023-05-21T20:27:51.184Z,98265.06
2023-05-21T20:29:58.401Z,98262.16
2023-05-21T20:32:00.168Z,98266.03
2023-05-21T20:34:01.971Z,98263.13
2023-05-21T20:36:03.888Z,98277.00
2023-05-21T20:38:05.652Z,98274.09
2023-05-21T20:40:09.277Z,98275.16
2023-05-21T20:42:13.892Z,98272.63
2023-05-21T20:44:15.818Z,98273.69
2023-05-21T20:46:20.095Z,98278.00
2023-05-21T20:48:22.142Z,98273.47
2023-05-21T20:50:26.112Z,98274.19
2023-05-21T20:52:27.756Z,98284.41
2023-05-21T20:54:30.843Z,98275.94
2023-05-21T20:56:42.331Z,98284.22
2023-05-21T20:58:44.717Z,98276.91
2023-05-21T21:00:46.347Z,98278.78
2023-05-21T21:02:48.066Z,98275.06
2023-05-21T21:04:50.623Z,98274.50
2023-05-21T21:06:53.312Z,98272.44
2023-05-21T21:08:55.431Z,98277.88
2023-05-21T21:10:57.049Z,98278.13
2023-05-21T21:12:58.905Z,98282.81
2023-05-21T21:15:01.009Z,98273.84
2023-05-21T21:17:02.652Z,98292.09
2023-05-21T21:19:05.604Z,98291.13
2023-05-21T21:21:10.348Z,98294.97
2023-05-21T21:23:12.016Z,98290.44
2023-05-21T21:25:14.243Z,98291.97
2023-05-21T21:27:15.873Z,98291.38
2023-05-21T21:29:17.607Z,98289.66
2023-05-21T21:31:20.034Z,98290.69
2023-05-21T21:33:24.388Z,98289.44
2023-05-21T21:35:26.202Z,98291.25
2023-05-21T21:37:29.373Z,98288.72
2023-05-21T21:39:31.083Z,98287.44
2023-05-21T21:41:34.782Z,98289.28
2023-05-21T21:43:36.910Z,98286.38
2023-05-21T21:45:39.001Z,98293.81
2023-05-21T21:47:41.078Z,98295.31
2023-05-21T21:49:42.742Z,98293.59
2023-05-21T21:51:44.962Z,98287.88
2023-05-21T21:53:46.817Z,98293.31
2023-05-21T21:55:51.692Z,98295.16
2023-05-21T21:57:53.440Z,98291.44
2023-05-21T21:59:55.129Z,98289.34
2023-05-21T22:01:56.951Z,98285.59
2023-05-21T22:03:58.702Z,98290.72
2023-05-21T22:06:00.884Z,98292.22
2023-05-21T22:08:04.046Z,98286.03
2023-05-21T22:10:06.312Z,98291.50
2023-05-21T22:12:08.365Z,98290.22
2023-05-21T22:14:14.343Z,98290.91
2023-05-21T22:16:18.994Z,98290.78
2023-05-21T22:18:35.953Z,98294.59
2023-05-21T22:20:43.693Z,98301.66
2023-05-21T22:22:46.255Z,98297.94
2023-05-21T22:24:48.015Z,98290.63
2023-05-21T22:26:49.648Z,98292.13
2023-05-21T22:28:51.735Z,98292.81
2023-05-21T22:30:53.611Z,98303.78
2023-05-21T22:32:56.879Z,98298.13
2023-05-21T22:34:58.466Z,98299.59
2023-05-21T22:37:00.124Z,98298.31
2023-05-21T22:39:02.147Z,98306.84
2023-05-21T22:41:03.863Z,98305.56
2023-05-21T22:43:05.650Z,98302.63
2023-05-21T22:45:11.448Z,98304.13
2023-05-21T22:47:16.245Z,98301.19
2023-05-21T22:49:17.781Z,98298.31
2023-05-21T22:51:19.642Z,98298.16
2023-05-21T22:53:21.251Z,98303.56
2023-05-21T22:55:22.735Z,98307.06
2023-05-21T22:57:24.388Z,98312.47
2023-05-21T22:59:26.185Z,98319.53
2023-05-21T23:01:27.999Z,98317.41
2023-05-21T23:03:29.731Z,98313.69
2023-05-21T23:05:31.338Z,98312.72
2023-05-21T23:07:33.344Z,98305.06
2023-05-21T23:09:35.081Z,98309.66
2023-05-21T23:11:36.647Z,98307.53
2023-05-21T23:13:38.133Z,98316.59
2023-05-21T23:15:39.784Z,98311.22
2023-05-21T23:17:41.432Z,98307.16
2023-05-21T23:19:43.049Z,98303.41
2023-05-21T23:21:44.604Z,98306.06
2023-05-21T23:23:46.440Z,98300.31
2023-05-21T23:25:48.125Z,98310.78
2023-05-21T23:27:49.696Z,98306.72
2023-05-21T23:29:51.443Z,98311.34
2023-05-21T23:31:54.414Z,98312.81
2023-05-21T23:33:57.030Z,98309.41
2023-05-21T23:35:58.619Z,98301.72
2023-05-21T23:38:00.238Z,98310.72
2023-05-21T23:40:01.925Z,98312.22
2023-05-21T23:42:03.849Z,98306.84
2023-05-21T23:44:05.512Z,98309.13
2023-05-21T23:46:07.788Z,98308.66
2023-05-21T23:48:09.511Z,98307.38
2023-05-21T23:50:11.199Z,98309.31
2023-05-21T23:52:13.499Z,98306.41
2023-05-21T23:54:16.916Z,98307.22
2023-05-21T23:56:18.626Z,98301.53
2023-05-21T23:58:20.528Z,98300.69
